Time;durP1;ratioP1;P1;durP2;ratioP2;P2;SDS_P1;SDS_P2;PMS_P1;PMS_P2;Temp;Humidity;BMP_temperature;BMP_pressure;BME280_temperature;BME280_humidity;BME280_pressure;Samples;Min_cycle;Max_cycle;Signal;HPM_P1;HPM_P2
2023/04/23 00:00:51;;;;;;;14.43;9.95;;;;;;;11.27;100.00;100124.19;5108425;28;20024;-34
2023/04/23 00:03:18;;;;;;;15.60;9.40;;;;;;;11.33;100.00;100143.84;5108532;28;20020;-33
2023/04/23 00:05:44;;;;;;;15.38;9.23;;;;;;;10.78;100.00;100140.03;5107367;28;20092;-33
2023/04/23 00:08:10;;;;;;;14.27;9.35;;;;;;;10.81;100.00;100136.94;5108037;28;20171;-35
2023/04/23 00:10:36;;;;;;;15.75;9.80;;;;;;;10.93;100.00;100139.72;5108148;28;20110;-34
2023/04/23 00:13:03;;;;;;;16.45;10.00;;;;;;;10.90;100.00;100142.81;5107787;27;20123;-36
2023/04/23 00:15:29;;;;;;;19.05;11.55;;;;;;;10.85;100.00;100143.47;5106589;28;20035;-35
2023/04/23 00:17:54;;;;;;;18.45;11.77;;;;;;;10.77;100.00;100141.06;5107185;28;20039;-36
2023/04/23 00:20:20;;;;;;;37.38;17.48;;;;;;;10.49;100.00;100140.69;5107830;28;20023;-34
2023/04/23 00:22:46;;;;;;;30.70;15.07;;;;;;;10.50;100.00;100134.31;5107521;28;20063;-33
2023/04/23 00:25:11;;;;;;;20.95;12.65;;;;;;;10.27;100.00;100136.47;5107705;28;20239;-34
2023/04/23 00:27:37;;;;;;;18.95;12.05;;;;;;;10.01;100.00;100132.13;5107312;28;20019;-34
2023/04/23 00:30:03;;;;;;;21.98;12.38;;;;;;;10.14;100.00;100133.91;5107474;28;20106;-35
2023/04/23 00:32:29;;;;;;;17.08;10.70;;;;;;;10.17;100.00;100124.66;5107492;28;20026;-35
2023/04/23 00:34:55;;;;;;;13.38;9.63;;;;;;;10.36;100.00;100133.56;5107133;28;20035;-33
2023/04/23 00:37:21;;;;;;;13.13;8.68;;;;;;;10.30;100.00;100129.94;5098194;28;20157;-34
2023/04/23 00:39:46;;;;;;;14.32;9.32;;;;;;;10.15;100.00;100132.06;5100618;28;20069;-34
2023/04/23 00:42:12;;;;;;;13.85;8.95;;;;;;;10.22;100.00;100138.16;5092640;28;20457;-34
2023/04/23 00:44:40;;;;;;;12.40;7.70;;;;;;;10.01;100.00;100142.78;5086996;28;20473;-35
2023/04/23 00:47:06;;;;;;;12.13;8.07;;;;;;;10.02;100.00;100133.75;5086885;28;20032;-35
2023/04/23 00:49:33;;;;;;;14.00;8.35;;;;;;;10.18;100.00;100148.44;5086764;28;20043;-33
2023/04/23 00:51:59;;;;;;;12.85;7.70;;;;;;;10.19;100.00;100130.59;5086853;28;20028;-34
2023/04/23 00:54:25;;;;;;;11.85;7.93;;;;;;;10.47;100.00;100137.41;5086484;28;20085;-33
2023/04/23 00:56:51;;;;;;;14.90;8.48;;;;;;;10.59;100.00;100149.84;5086787;28;20016;-34
2023/04/23 00:59:17;;;;;;;15.27;8.82;;;;;;;10.75;100.00;100153.00;5086889;28;20146;-36
2023/04/23 01:01:44;;;;;;;11.77;9.05;;;;;;;10.49;100.00;100165.50;5086374;28;20028;-35
2023/04/23 01:04:13;;;;;;;12.75;8.50;;;;;;;10.54;100.00;100157.69;5086694;28;20051;-34
2023/04/23 01:06:39;;;;;;;15.25;8.20;;;;;;;10.25;100.00;100159.84;5086644;28;20044;-34
2023/04/23 01:09:07;;;;;;;15.20;8.30;;;;;;;10.08;100.00;100157.94;5086213;28;20971;-34
2023/04/23 01:11:33;;;;;;;11.77;7.63;;;;;;;10.00;100.00;100156.31;5105161;28;20155;-34
2023/04/23 01:13:58;;;;;;;11.90;7.68;;;;;;;10.13;100.00;100147.44;5106630;28;20065;-35
2023/04/23 01:16:24;;;;;;;12.25;7.60;;;;;;;10.24;100.00;100149.44;5106341;28;20031;-35
2023/04/23 01:18:49;;;;;;;10.98;7.68;;;;;;;10.14;100.00;100157.88;5106238;28;20412;-33
2023/04/23 01:21:17;;;;;;;12.93;7.57;;;;;;;9.90;100.00;100146.13;5106631;28;20500;-35
2023/04/23 01:23:42;;;;;;;13.43;7.55;;;;;;;9.83;100.00;100161.31;5106658;28;20028;-34
2023/04/23 01:26:09;;;;;;;14.93;8.25;;;;;;;9.91;100.00;100163.75;5106689;28;20080;-33
2023/04/23 01:28:35;;;;;;;14.23;8.30;;;;;;;10.09;100.00;100160.38;5106638;28;20108;-34
2023/04/23 01:31:01;;;;;;;12.68;8.48;;;;;;;9.90;100.00;100155.97;5106343;28;20420;-34
2023/04/23 01:33:27;;;;;;;14.48;9.10;;;;;;;9.91;100.00;100157.59;5106538;28;20124;-34
2023/04/23 01:35:54;;;;;;;19.42;10.05;;;;;;;9.67;100.00;100153.81;5106455;28;20550;-34
2023/04/23 01:38:21;;;;;;;22.83;11.00;;;;;;;9.75;100.00;100129.59;5106218;28;20039;-34
2023/04/23 01:40:47;;;;;;;24.13;10.48;;;;;;;9.71;100.00;100152.38;5106507;28;20023;-34
2023/04/23 01:43:13;;;;;;;17.20;10.65;;;;;;;9.63;100.00;100162.22;5106425;28;20042;-34
2023/04/23 01:45:40;;;;;;;22.77;10.57;;;;;;;9.61;100.00;100158.94;5106238;28;20036;-35
2023/04/23 01:48:05;;;;;;;16.73;9.98;;;;;;;9.63;100.00;100162.22;5106034;28;20032;-34
2023/04/23 01:50:31;;;;;;;15.73;8.60;;;;;;;9.48;100.00;100158.16;5106121;28;20024;-37
2023/04/23 01:52:57;;;;;;;17.85;9.13;;;;;;;9.68;100.00;100158.09;5106372;28;20019;-34
2023/04/23 01:55:22;;;;;;;16.17;8.88;;;;;;;9.81;100.00;100158.06;5105933;28;20028;-33
2023/04/23 01:57:48;;;;;;;13.70;8.88;;;;;;;10.00;100.00;100165.13;5106175;28;20023;-34
2023/04/23 02:00:15;;;;;;;14.35;8.27;;;;;;;9.94;100.00;100151.84;5105905;28;20080;-34
2023/04/23 02:02:43;;;;;;;13.23;8.60;;;;;;;10.13;100.00;100171.41;5105966;28;20054;-37
2023/04/23 02:05:17;;;;;;;12.07;7.95;;;;;;;9.97;100.00;100165.56;5105842;28;20027;-34
2023/04/23 02:07:44;;;;;;;12.50;8.40;;;;;;;10.12;100.00;100164.47;5105921;28;20054;-34
2023/04/23 02:10:10;;;;;;;14.00;8.40;;;;;;;10.32;100.00;100164.38;5106191;28;20028;-35
2023/04/23 02:12:36;;;;;;;11.57;8.02;;;;;;;10.32;100.00;100172.34;5105477;28;20035;-35
2023/04/23 02:15:02;;;;;;;15.48;8.25;;;;;;;10.21;100.00;100174.63;5105777;28;20055;-34
2023/04/23 02:17:28;;;;;;;13.95;8.45;;;;;;;9.89;100.00;100171.13;5105756;28;20475;-34
2023/04/23 02:19:54;;;;;;;16.17;7.97;;;;;;;9.88;100.00;100169.50;5106120;28;20054;-34
2023/04/23 02:22:23;;;;;;;11.30;7.60;;;;;;;9.75;100.00;100159.72;5105855;28;20051;-37
2023/04/23 02:24:52;;;;;;;13.40;7.80;;;;;;;9.96;100.00;100171.91;5105882;28;20506;-34
2023/04/23 02:27:18;;;;;;;;;;;;;;;9.96;100.00;100171.91;5107001;28;20035;-34
2023/04/23 02:29:44;;;;;;;14.50;7.40;;;;;;;10.29;100.00;100175.44;5109615;28;20006;-34
2023/04/23 02:32:10;;;;;;;11.95;7.70;;;;;;;10.06;100.00;100179.47;5109823;28;20453;-33
2023/04/23 02:34:35;;;;;;;14.40;7.72;;;;;;;10.16;100.00;100176.34;5109681;28;20514;-34
2023/04/23 02:37:00;;;;;;;11.75;7.50;;;;;;;10.00;100.00;100173.13;5109601;28;20027;-35
2023/04/23 02:39:26;;;;;;;12.80;8.30;;;;;;;9.59;100.00;100174.31;5103465;28;20032;-34
2023/04/23 02:41:51;;;;;;;13.88;8.55;;;;;;;9.74;100.00;100173.22;5100920;28;20472;-33
2023/04/23 02:44:17;;;;;;;17.15;8.10;;;;;;;9.79;100.00;100178.75;5107381;28;20042;-35
2023/04/23 02:46:42;;;;;;;14.50;8.88;;;;;;;9.76;100.00;100176.50;5109677;28;20476;-33
2023/04/23 02:49:07;;;;;;;13.57;8.18;;;;;;;10.00;100.00;100183.78;5108606;28;20632;-33
2023/04/23 02:51:33;;;;;;;13.65;8.30;;;;;;;10.08;100.00;100184.56;5109127;28;20028;-33
2023/04/23 02:53:58;;;;;;;12.93;9.10;;;;;;;9.96;100.00;100185.22;5109192;28;20037;-34
2023/04/23 02:56:24;;;;;;;14.02;8.90;;;;;;;9.93;100.00;100180.34;5109148;28;20417;-33
2023/04/23 02:58:50;;;;;;;14.55;9.20;;;;;;;9.90;100.00;100190.59;5109541;28;20031;-33
2023/04/23 03:01:15;;;;;;;13.35;8.82;;;;;;;10.03;100.00;100188.69;5108806;28;20077;-33
2023/04/23 03:03:41;;;;;;;12.15;9.02;;;;;;;10.01;100.00;100188.09;5109317;28;20072;-33
2023/04/23 03:06:07;;;;;;;12.23;8.40;;;;;;;10.09;100.00;100184.34;5108636;28;20027;-33
2023/04/23 03:08:33;;;;;;;14.85;9.27;;;;;;;10.17;100.00;100200.09;5108946;28;20529;-34
2023/04/23 03:10:58;;;;;;;16.42;8.93;;;;;;;9.98;100.00;100201.81;5109385;28;20028;-33
2023/04/23 03:13:25;;;;;;;14.07;8.40;;;;;;;9.77;100.00;100191.47;5108207;28;20054;-34
2023/04/23 03:15:52;;;;;;;13.00;8.90;;;;;;;9.41;100.00;100184.78;5108656;28;20448;-35
2023/04/23 03:18:18;;;;;;;22.17;14.50;;;;;;;9.15;100.00;100183.81;5108986;28;20027;-34
2023/04/23 03:20:44;;;;;;;15.45;8.70;;;;;;;9.02;100.00;100170.53;5109262;28;20034;-33
2023/04/23 03:23:09;;;;;;;29.85;18.73;;;;;;;9.02;100.00;100186.50;5108697;28;20429;-33
2023/04/23 03:25:35;;;;;;;63.63;36.60;;;;;;;8.90;100.00;100188.13;5108698;28;20032;-33
2023/04/23 03:28:00;;;;;;;42.60;26.95;;;;;;;8.96;100.00;100171.34;5108768;28;20031;-35
2023/04/23 03:30:26;;;;;;;67.78;48.42;;;;;;;9.31;100.00;100187.06;5108045;27;20549;-34
2023/04/23 03:32:55;;;;;;;31.98;22.05;;;;;;;9.31;100.00;100179.91;5108445;28;20023;-33
2023/04/23 03:35:20;;;;;;;21.90;13.60;;;;;;;9.46;100.00;100195.66;5108196;28;20066;-33
2023/04/23 03:37:46;;;;;;;15.07;10.60;;;;;;;9.40;100.00;100191.16;5108138;28;20073;-33
2023/04/23 03:40:11;;;;;;;19.00;11.00;;;;;;;9.51;100.00;100195.03;5102898;28;20027;-33
2023/04/23 03:42:37;;;;;;;21.83;11.15;;;;;;;9.46;100.00;100185.00;5087987;28;20020;-33
2023/04/23 03:45:03;;;;;;;17.75;12.10;;;;;;;9.52;100.00;100204.63;5088122;28;20116;-33
2023/04/23 03:47:28;;;;;;;19.98;13.27;;;;;;;9.23;100.00;100193.41;5088255;28;20028;-34
2023/04/23 03:49:54;;;;;;;16.52;11.43;;;;;;;9.07;100.00;100197.31;5088116;28;20050;-34
2023/04/23 03:52:19;;;;;;;18.25;10.00;;;;;;;8.96;100.00;100193.44;5087803;28;20040;-34
2023/04/23 03:54:45;;;;;;;18.73;11.40;;;;;;;8.91;100.00;100208.38;5087775;28;20058;-33
2023/04/23 03:57:11;;;;;;;21.25;9.95;;;;;;;8.82;100.00;100197.94;5088216;28;20024;-35
2023/04/23 03:59:36;;;;;;;15.23;10.93;;;;;;;8.98;100.00;100198.56;5087990;28;20429;-32
2023/04/23 04:02:05;;;;;;;14.13;9.57;;;;;;;9.03;100.00;100194.28;5087893;28;20028;-33
2023/04/23 04:04:30;;;;;;;;;;;;;;;8.99;100.00;100203.69;5088631;28;20036;-33
2023/04/23 04:06:59;;;;;;;16.15;9.63;;;;;;;9.37;100.00;100212.84;5087472;28;19922;-33
2023/04/23 04:09:25;;;;;;;20.05;10.85;;;;;;;9.31;100.00;100200.38;5087467;28;20031;-33
2023/04/23 04:11:52;;;;;;;16.60;9.68;;;;;;;9.42;100.00;100218.38;5091997;28;20524;-33
2023/04/23 04:14:18;;;;;;;13.03;9.83;;;;;;;9.50;100.00;100209.34;5107671;28;20063;-33
2023/04/23 04:16:43;;;;;;;16.27;10.18;;;;;;;9.59;100.00;100216.91;5107727;28;20059;-33
2023/04/23 04:19:08;;;;;;;20.60;14.20;;;;;;;9.83;100.00;100222.59;5107718;28;20477;-33
2023/04/23 04:21:34;;;;;;;20.35;14.88;;;;;;;9.77;100.00;100226.09;5107780;28;20016;-32
2023/04/23 04:24:00;;;;;;;27.63;19.10;;;;;;;9.71;100.00;100218.94;5108513;28;20907;-34
2023/04/23 04:26:26;;;;;;;31.23;17.85;;;;;;;9.51;100.00;100221.66;5107378;28;20929;-33
2023/04/23 04:28:52;;;;;;;24.55;15.27;;;;;;;9.44;100.00;100227.78;5107733;28;20787;-33
2023/04/23 04:31:20;;;;;;;16.25;12.02;;;;;;;9.94;100.00;100226.44;5107391;28;20028;-32
2023/04/23 04:33:46;;;;;;;17.92;11.57;;;;;;;9.96;100.00;100235.84;5107632;28;20024;-35
2023/04/23 04:36:12;;;;;;;21.48;11.30;;;;;;;10.16;100.00;100235.78;5107642;28;20030;-33
2023/04/23 04:38:38;;;;;;;19.60;10.07;;;;;;;10.10;100.00;100227.81;5107418;28;20565;-34
2023/04/23 04:41:05;;;;;;;17.30;10.23;;;;;;;10.25;100.00;100231.81;5107076;28;20037;-33
2023/04/23 04:43:31;;;;;;;16.85;10.35;;;;;;;10.59;100.00;100250.34;5107107;28;20027;-33
2023/04/23 04:45:57;;;;;;;16.92;11.70;;;;;;;10.61;100.00;100243.78;5107010;28;20024;-33
2023/04/23 04:48:23;;;;;;;18.45;12.05;;;;;;;10.83;100.00;100241.59;5103960;28;20559;-33
2023/04/23 04:50:49;;;;;;;19.88;11.73;;;;;;;10.71;100.00;100253.97;5105910;27;20110;-34
2023/04/23 04:53:15;;;;;;;16.45;9.30;;;;;;;10.70;100.00;100255.00;5105799;28;20024;-33
2023/04/23 04:55:40;;;;;;;16.33;9.70;;;;;;;10.58;100.00;100238.88;5106614;28;20023;-33
2023/04/23 04:58:06;;;;;;;19.92;9.32;;;;;;;10.64;100.00;100258.53;5106661;28;20046;-33
2023/04/23 05:00:31;;;;;;;18.40;9.73;;;;;;;10.69;100.00;100260.56;5106445;28;20020;-33
2023/04/23 05:02:57;;;;;;;18.55;10.00;;;;;;;10.81;100.00;100265.00;5107219;28;20400;-33
2023/04/23 05:05:24;;;;;;;17.00;8.65;;;;;;;11.04;100.00;100264.41;5106524;28;20527;-33
2023/04/23 05:07:50;;;;;;;18.05;9.35;;;;;;;11.03;100.00;100240.59;5103909;28;20028;-33
2023/04/23 05:10:16;;;;;;;15.27;8.68;;;;;;;10.92;100.00;100265.34;5106545;28;20959;-33
2023/04/23 05:12:42;;;;;;;12.35;7.97;;;;;;;10.85;100.00;100268.88;5106182;28;20031;-33
2023/04/23 05:15:12;;;;;;;11.73;6.32;;;;;;;10.96;98.76;100272.69;5106164;28;20463;-33
2023/04/23 05:17:37;;;;;;;12.02;6.43;;;;;;;11.02;99.51;100266.47;5106527;28;20016;-34
2023/04/23 05:20:03;;;;;;;12.38;6.05;;;;;;;10.94;100.00;100268.59;5106602;28;20073;-33
2023/04/23 05:22:29;;;;;;;11.00;5.65;;;;;;;11.15;99.62;100260.22;5106289;28;20087;-33
2023/04/23 05:24:55;;;;;;;11.90;5.65;;;;;;;11.47;98.19;100270.84;5106207;28;20024;-33
2023/04/23 05:27:20;;;;;;;11.00;5.50;;;;;;;11.68;96.28;100274.13;5106036;28;20054;-34
2023/04/23 05:29:45;;;;;;;12.15;5.70;;;;;;;11.82;96.26;100284.47;5106431;28;20020;-34
2023/04/23 05:32:11;;;;;;;11.45;5.50;;;;;;;11.74;94.29;100275.91;5103074;28;20037;-33
2023/04/23 05:34:38;;;;;;;8.95;5.15;;;;;;;11.99;94.02;100275.88;5105902;28;20093;-36
2023/04/23 05:37:03;;;;;;;12.52;5.30;;;;;;;12.17;92.46;100288.44;5105927;28;20046;-34
2023/04/23 05:39:29;;;;;;;9.52;5.00;;;;;;;12.12;93.94;100285.63;5103369;28;20046;-34
2023/04/23 05:41:55;;;;;;;10.15;4.95;;;;;;;12.30;92.62;100290.97;5099000;28;20024;-33
2023/04/23 05:44:20;;;;;;;11.30;5.20;;;;;;;12.24;95.02;100291.84;5105414;28;20063;-33
2023/04/23 05:46:46;;;;;;;10.52;5.00;;;;;;;12.20;94.63;100271.97;5106010;28;20587;-33
2023/04/23 05:49:11;;;;;;;10.68;5.38;;;;;;;12.19;94.15;100299.72;5105698;28;20670;-33
2023/04/23 05:51:36;;;;;;;13.88;5.10;;;;;;;12.28;91.62;100298.41;5105635;28;20601;-35
2023/04/23 05:54:02;;;;;;;12.05;5.50;;;;;;;12.83;89.62;100300.13;5105923;28;20088;-34
2023/04/23 05:56:27;;;;;;;13.27;5.60;;;;;;;12.94;91.26;100302.03;5106030;28;20032;-33
2023/04/23 05:58:53;;;;;;;8.30;4.57;;;;;;;13.12;89.15;100301.16;5106189;28;20038;-33
2023/04/23 06:01:18;;;;;;;8.32;4.93;;;;;;;13.36;85.75;100298.53;5105945;28;20035;-33
2023/04/23 06:03:44;;;;;;;8.23;5.28;;;;;;;13.50;87.69;100297.25;5105087;28;20028;-34
2023/04/23 06:06:13;;;;;;;10.40;4.93;;;;;;;13.59;85.05;100300.41;5106214;28;20120;-33
2023/04/23 06:08:38;;;;;;;12.80;5.72;;;;;;;13.59;85.41;100309.28;5105947;28;20108;-33
2023/04/23 06:11:05;;;;;;;9.82;5.00;;;;;;;13.73;84.23;100301.81;5105762;28;20028;-33
2023/04/23 06:13:30;;;;;;;12.15;4.97;;;;;;;13.55;85.18;100283.97;5105496;28;20028;-33
2023/04/23 06:15:56;;;;;;;10.73;4.90;;;;;;;13.48;85.54;100307.38;5106291;28;20032;-33
2023/04/23 06:18:22;;;;;;;11.63;5.72;;;;;;;13.45;85.66;100303.31;5105533;28;20036;-36
2023/04/23 06:20:50;;;;;;;13.65;5.15;;;;;;;13.57;84.68;100284.56;5105680;28;20034;-32
2023/04/23 06:23:16;;;;;;;10.60;4.97;;;;;;;13.83;86.15;100304.72;5105255;28;20034;-33
2023/04/23 06:25:41;;;;;;;10.55;5.13;;;;;;;14.22;81.67;100304.16;5105752;28;20016;-32
2023/04/23 06:28:07;;;;;;;7.70;4.78;;;;;;;13.79;84.69;100294.69;5105044;28;20024;-33
2023/04/23 06:30:32;;;;;;;10.23;5.57;;;;;;;13.79;84.44;100305.41;5105455;28;20028;-33
2023/04/23 06:32:58;;;;;;;13.20;5.13;;;;;;;14.31;82.29;100304.63;5105551;28;20039;-33
2023/04/23 06:35:23;;;;;;;10.10;5.43;;;;;;;14.38;81.78;100300.75;5105208;28;20541;-32
2023/04/23 06:37:48;;;;;;;10.73;5.68;;;;;;;14.71;84.45;100310.00;5105091;28;20027;-34
2023/04/23 06:40:14;;;;;;;9.73;5.03;;;;;;;14.67;82.82;100306.19;5105165;28;20027;-32
2023/04/23 06:42:40;;;;;;;10.90;4.88;;;;;;;14.62;82.69;100300.69;5104921;28;20039;-33
2023/04/23 06:45:06;;;;;;;11.40;5.43;;;;;;;14.63;79.89;100310.41;5105447;28;20043;-33
2023/04/23 06:47:31;;;;;;;15.18;5.70;;;;;;;14.48;79.39;100310.88;5105135;28;20027;-33
2023/04/23 06:49:58;;;;;;;12.25;5.05;;;;;;;14.58;82.39;100307.59;5105254;28;20023;-33
2023/04/23 06:52:24;;;;;;;9.88;5.07;;;;;;;14.70;79.71;100307.56;5102550;28;20035;-33
2023/04/23 06:54:50;;;;;;;13.23;5.32;;;;;;;14.60;79.63;100303.63;5105198;28;20034;-33
2023/04/23 06:57:15;;;;;;;8.38;4.90;;;;;;;14.27;81.40;100298.94;5105170;28;20556;-33
2023/04/23 06:59:40;;;;;;;11.73;5.03;;;;;;;14.20;84.33;100300.91;5105020;28;20022;-32
2023/04/23 07:02:06;;;;;;;10.80;5.03;;;;;;;14.58;81.78;100296.88;5104981;28;20066;-33
2023/04/23 07:04:32;;;;;;;11.95;6.13;;;;;;;14.76;82.63;100307.41;5104878;28;20500;-35
2023/04/23 07:06:57;;;;;;;8.48;5.30;;;;;;;14.85;81.22;100303.28;5104598;28;20031;-33
2023/04/23 07:09:23;;;;;;;9.82;5.15;;;;;;;14.52;82.69;100293.22;5105654;28;20043;-33
2023/04/23 07:11:48;;;;;;;13.05;5.13;;;;;;;14.51;81.63;100306.91;5104780;28;20061;-33
2023/04/23 07:14:14;;;;;;;13.13;5.63;;;;;;;14.72;78.77;100308.94;5105789;28;20047;-34
2023/04/23 07:16:40;;;;;;;11.88;5.30;;;;;;;15.07;79.06;100310.63;5109061;28;20067;-33
2023/04/23 07:19:05;;;;;;;10.00;4.70;;;;;;;15.34;77.69;100310.00;5109114;28;20435;-33
2023/04/23 07:21:31;;;;;;;10.80;4.25;;;;;;;14.97;75.91;100305.09;5108896;28;20024;-32
2023/04/23 07:24:05;;;;;;;6.10;4.03;;;;;;;15.15;76.55;100310.25;5108803;28;20031;-34
2023/04/23 07:26:31;;;;;;;9.18;3.95;;;;;;;15.05;75.61;100300.13;5108824;27;20038;-35
2023/04/23 07:28:57;;;;;;;11.25;4.03;;;;;;;15.00;74.69;100304.63;5108782;28;20027;-36
2023/04/23 07:31:22;;;;;;;8.57;4.00;;;;;;;15.38;71.23;100321.88;5108712;28;20027;-33
2023/04/23 07:33:48;;;;;;;6.60;3.80;;;;;;;15.88;68.88;100304.94;5108467;28;20038;-32
2023/04/23 07:36:14;;;;;;;9.13;3.60;;;;;;;15.94;66.94;100313.91;5108805;28;20040;-33
2023/04/23 07:38:39;;;;;;;8.68;3.83;;;;;;;15.74;65.86;100317.09;5108557;28;20031;-33
2023/04/23 07:41:05;;;;;;;8.38;3.42;;;;;;;16.22;66.84;100312.88;5105106;27;20042;-32
2023/04/23 07:43:30;;;;;;;10.27;4.15;;;;;;;16.04;65.94;100314.84;5098842;28;20027;-33
2023/04/23 07:45:56;;;;;;;7.03;3.67;;;;;;;16.30;61.58;100315.16;5103275;28;20098;-33
2023/04/23 07:48:21;;;;;;;10.15;4.20;;;;;;;16.61;60.89;100302.03;5101268;28;20420;-33
2023/04/23 07:50:47;;;;;;;7.03;3.20;;;;;;;16.99;56.63;100313.75;5108195;28;20027;-33
2023/04/23 07:53:13;;;;;;;6.53;2.70;;;;;;;15.72;51.38;100311.97;5108640;28;20027;-32
2023/04/23 07:55:38;;;;;;;5.07;2.25;;;;;;;16.01;56.40;100315.31;5108121;28;20377;-32
2023/04/23 07:58:03;;;;;;;8.95;3.38;;;;;;;16.01;57.13;100295.69;5108134;28;20385;-33
2023/04/23 08:00:29;;;;;;;5.10;2.92;;;;;;;16.09;56.09;100302.50;5108028;28;20028;-32
2023/04/23 08:02:55;;;;;;;11.10;2.60;;;;;;;16.34;59.92;100300.13;5108249;28;20397;-32
2023/04/23 08:05:20;;;;;;;6.47;3.05;;;;;;;16.35;53.97;100309.84;5108014;27;20507;-32
2023/04/23 08:07:46;;;;;;;7.35;2.70;;;;;;;16.10;49.75;100301.44;5107666;28;20062;-33
2023/04/23 08:10:12;;;;;;;6.35;2.60;;;;;;;15.99;53.47;100301.31;5107913;28;20412;-33
2023/04/23 08:12:37;;;;;;;8.55;2.65;;;;;;;16.44;51.66;100297.53;5107458;28;20114;-33
2023/04/23 08:15:03;;;;;;;7.18;2.72;;;;;;;16.53;51.73;100294.41;5107935;28;20023;-33
2023/04/23 08:17:28;;;;;;;7.47;3.00;;;;;;;16.93;51.43;100295.94;5108329;28;20466;-33
2023/04/23 08:19:54;;;;;;;6.63;3.40;;;;;;;16.83;52.22;100289.38;5107719;28;20126;-33
2023/04/23 08:22:19;;;;;;;6.65;3.28;;;;;;;16.94;50.36;100294.84;5107656;28;20118;-33
2023/04/23 08:24:45;;;;;;;8.02;2.90;;;;;;;17.12;51.95;100302.59;5107960;28;20454;-34
2023/04/23 08:27:11;;;;;;;8.00;3.38;;;;;;;16.86;47.02;100293.44;5107613;28;20024;-32
2023/04/23 08:29:36;;;;;;;10.23;2.80;;;;;;;16.70;52.57;100295.13;5107519;28;20066;-34
2023/04/23 08:32:01;;;;;;;12.68;3.25;;;;;;;16.61;50.15;100292.09;5107749;28;20027;-33
2023/04/23 08:34:27;;;;;;;7.22;2.70;;;;;;;16.40;45.72;100296.41;5107181;28;20432;-33
2023/04/23 08:36:53;;;;;;;6.55;2.85;;;;;;;16.52;51.90;100287.41;5107729;28;20492;-32
2023/04/23 08:39:18;;;;;;;6.95;2.70;;;;;;;16.82;50.13;100285.06;5107206;28;20031;-33
2023/04/23 08:41:48;;;;;;;7.20;2.70;;;;;;;16.90;48.45;100266.78;5107655;28;20031;-32
2023/04/23 08:44:18;;;;;;;11.77;2.75;;;;;;;16.92;47.67;100268.19;5107139;28;20023;-33
2023/04/23 08:46:44;;;;;;;6.00;2.53;;;;;;;17.21;49.28;100279.47;5107407;28;20028;-33
2023/04/23 08:49:15;;;;;;;9.38;2.97;;;;;;;17.12;44.61;100283.72;5107489;28;20080;-33
2023/04/23 08:51:51;;;;;;;6.38;2.83;;;;;;;17.23;44.44;100271.94;5107360;28;20029;-32
2023/04/23 08:54:27;;;;;;;6.63;2.75;;;;;;;17.42;44.43;100282.31;5107057;28;20027;-33
2023/04/23 08:57:00;;;;;;;9.27;2.90;;;;;;;17.95;47.62;100261.63;5107041;28;20042;-33
2023/04/23 08:59:30;;;;;;;6.80;2.58;;;;;;;17.75;46.41;100256.88;5107044;28;20135;-32
2023/04/23 09:01:56;;;;;;;7.95;2.75;;;;;;;18.03;44.93;100273.78;5106891;28;20201;-32
2023/04/23 09:04:23;;;;;;;9.05;2.95;;;;;;;18.24;45.87;100264.69;5106787;28;20106;-33
2023/04/23 09:06:49;;;;;;;6.10;2.65;;;;;;;18.05;42.94;100269.75;5106927;27;20072;-34
2023/04/23 09:09:16;;;;;;;4.38;2.45;;;;;;;18.00;42.05;100280.53;5106289;28;20036;-33
2023/04/23 09:11:41;;;;;;;5.07;2.60;;;;;;;18.09;44.41;100269.25;5106735;28;20055;-33
2023/04/23 09:14:07;;;;;;;6.57;2.42;;;;;;;17.89;38.32;100278.84;5106669;28;20317;-33
2023/04/23 09:16:33;;;;;;;6.93;2.80;;;;;;;17.77;39.02;100259.34;5106613;28;20054;-34
2023/04/23 09:18:58;;;;;;;10.30;3.08;;;;;;;18.28;43.47;100276.56;5106965;28;20416;-34
2023/04/23 09:21:24;;;;;;;5.38;2.75;;;;;;;18.55;43.59;100274.78;5106446;28;20165;-33
2023/04/23 09:23:51;;;;;;;8.40;2.70;;;;;;;18.89;42.68;100266.22;5106260;28;20044;-34
2023/04/23 09:26:23;;;;;;;12.95;3.10;;;;;;;18.86;38.99;100265.69;5105853;28;20028;-32
2023/04/23 09:28:50;;;;;;;6.80;2.72;;;;;;;19.04;42.51;100258.09;5105918;28;20028;-33
2023/04/23 09:31:22;;;;;;;8.75;3.13;;;;;;;19.35;40.68;100260.78;5105882;28;20035;-34
2023/04/23 09:33:52;;;;;;;6.70;2.65;;;;;;;19.32;41.88;100264.84;5105933;28;20050;-32
2023/04/23 09:36:25;;;;;;;6.18;2.88;;;;;;;19.10;38.31;100267.03;5106531;28;20023;-32
2023/04/23 09:38:56;;;;;;;7.13;2.60;;;;;;;19.27;41.34;100238.63;5105736;28;20473;-33
2023/04/23 09:41:26;;;;;;;7.22;2.72;;;;;;;19.23;39.37;100248.38;5106402;28;20110;-33
2023/04/23 09:43:53;;;;;;;7.85;2.83;;;;;;;19.59;37.19;100256.41;5106107;28;20504;-34
2023/04/23 09:46:35;;;;;;;10.73;3.83;;;;;;;19.64;42.24;100245.59;5095196;28;20026;-32
2023/04/23 09:49:06;;;;;;;6.80;2.50;;;;;;;19.22;39.06;100248.63;5106031;28;20063;-33
2023/04/23 09:51:35;;;;;;;7.18;2.70;;;;;;;19.49;42.59;100223.97;5105973;27;20397;-32
2023/04/23 09:54:02;;;;;;;6.65;2.70;;;;;;;19.61;37.85;100243.44;5106244;28;20023;-34
2023/04/23 09:56:29;;;;;;;9.05;3.20;;;;;;;19.82;39.67;100210.94;5106069;27;20173;-32
2023/04/23 09:58:55;;;;;;;8.38;3.15;;;;;;;20.35;39.23;100232.88;5106027;28;20024;-33
2023/04/23 10:01:28;;;;;;;6.15;3.10;;;;;;;20.34;39.79;100227.75;5106146;27;20035;-33
2023/04/23 10:03:55;;;;;;;23.42;3.90;;;;;;;20.46;35.22;100217.38;5105847;28;20527;-34
2023/04/23 10:06:27;;;;;;;9.02;3.10;;;;;;;21.10;36.61;100223.66;5106078;28;20039;-33
2023/04/23 10:08:56;;;;;;;9.90;3.58;;;;;;;21.23;34.58;100223.00;5105468;27;20042;-32
2023/04/23 10:11:24;;;;;;;6.55;3.40;;;;;;;19.67;38.62;100215.28;5106088;28;20053;-32
2023/04/23 10:13:50;;;;;;;6.13;3.00;;;;;;;19.91;36.51;100219.28;5106108;28;20037;-33
2023/04/23 10:16:17;;;;;;;7.65;3.53;;;;;;;20.57;38.50;100207.25;5105679;28;20035;-32
2023/04/23 10:18:43;;;;;;;6.28;3.28;;;;;;;20.47;37.63;100206.25;5106111;28;20416;-32
2023/04/23 10:21:11;;;;;;;7.18;2.80;;;;;;;20.39;37.29;100190.59;5105682;28;20408;-33
2023/04/23 10:23:40;;;;;;;6.18;2.85;;;;;;;20.46;40.94;100193.78;5104755;28;20051;-33
2023/04/23 10:26:08;;;;;;;8.27;3.10;;;;;;;20.23;38.52;100203.44;5106038;28;20028;-32
2023/04/23 10:28:34;;;;;;;6.97;3.25;;;;;;;20.25;38.93;100203.16;5105708;28;20497;-33
2023/04/23 10:31:02;;;;;;;6.93;3.20;;;;;;;20.41;39.31;100191.13;5105842;28;20042;-34
2023/04/23 10:33:30;;;;;;;7.32;2.72;;;;;;;20.64;38.44;100178.00;5105737;28;20031;-32
2023/04/23 10:35:56;;;;;;;6.57;2.85;;;;;;;20.36;38.53;100185.75;5105878;28;20024;-32
2023/04/23 10:38:22;;;;;;;8.10;3.00;;;;;;;21.12;39.08;100186.22;5104322;28;20483;-32
2023/04/23 10:40:52;;;;;;;8.60;3.15;;;;;;;20.67;40.14;100175.50;5105830;28;20104;-32
2023/04/23 10:43:18;;;;;;;8.70;3.28;;;;;;;20.75;37.11;100194.97;5105262;28;20028;-32
2023/04/23 10:45:43;;;;;;;8.35;3.15;;;;;;;21.22;35.46;100178.00;5105072;28;20046;-33
2023/04/23 10:48:09;;;;;;;5.50;3.20;;;;;;;21.56;38.62;100181.75;5105349;28;20032;-33
2023/04/23 10:50:35;;;;;;;5.00;3.17;;;;;;;21.43;36.44;100184.06;5109766;28;20458;-32
2023/04/23 10:53:01;;;;;;;7.88;3.63;;;;;;;21.32;38.01;100170.84;5109569;28;20066;-32
2023/04/23 10:55:29;;;;;;;6.53;3.05;;;;;;;21.34;37.27;100168.66;5109008;28;20089;-33
2023/04/23 10:58:01;;;;;;;8.82;3.13;;;;;;;21.52;35.91;100154.38;5109095;28;20030;-35
2023/04/23 11:00:27;;;;;;;8.73;3.10;;;;;;;20.86;37.89;100170.22;5109339;27;20052;-33
2023/04/23 11:02:53;;;;;;;10.02;3.42;;;;;;;21.64;39.07;100157.47;5109250;28;20028;-32
2023/04/23 11:05:21;;;;;;;5.65;3.03;;;;;;;21.83;37.41;100159.41;5108905;28;20027;-32
2023/04/23 11:08:04;;;;;;;7.75;3.00;;;;;;;21.91;37.65;100144.38;5109221;28;20039;-32
2023/04/23 11:10:31;;;;;;;5.88;2.90;;;;;;;21.40;36.28;100159.38;5109118;28;20024;-33
2023/04/23 11:12:57;;;;;;;8.67;2.73;;;;;;;21.86;38.45;100156.94;5108701;28;20028;-32